Time;durP1;ratioP1;P1;durP2;ratioP2;P2;SDS_P1;SDS_P2;PMS_P1;PMS_P2;Temp;Humidity;BMP_temperature;BMP_pressure;BME280_temperature;BME280_humidity;BME280_pressure;Samples;Min_cycle;Max_cycle;Signal;HPM_P1;HPM_P2
2021/12/29 06:00:20;;;;;;;1.57;1.03;;;9.80;97.20;;;;;;1737728;28;20184;-85
2021/12/29 06:01:12;;;;;;;3.63;1.67;;;9.80;97.20;;;;;;1738013;28;20227;-84
2021/12/29 06:02:04;;;;;;;3.38;1.33;;;9.80;97.20;;;;;;1737778;28;20196;-85
2021/12/29 06:02:56;;;;;;;5.65;1.70;;;9.80;97.20;;;;;;1737256;28;20214;-85
2021/12/29 06:03:47;;;;;;;2.53;1.20;;;9.80;97.20;;;;;;1736528;28;20291;-85
2021/12/29 06:04:38;;;;;;;1.73;1.08;;;9.90;97.20;;;;;;1737615;28;20257;-85
2021/12/29 06:05:30;;;;;;;1.90;1.17;;;9.90;97.20;;;;;;1737438;28;20200;-85
2021/12/29 06:06:20;;;;;;;2.45;1.20;;;9.90;97.20;;;;;;1737419;28;20207;-86
2021/12/29 06:07:12;;;;;;;1.70;1.23;;;9.90;97.20;;;;;;1737763;28;20295;-84
2021/12/29 06:08:05;;;;;;;3.33;1.10;;;10.00;97.20;;;;;;1737840;28;20222;-85
2021/12/29 06:08:56;;;;;;;2.47;1.17;;;10.00;97.20;;;;;;1737654;28;20249;-85
2021/12/29 06:09:48;;;;;;;2.40;0.90;;;10.00;97.20;;;;;;1737516;28;20196;-85
2021/12/29 06:10:39;;;;;;;3.85;1.13;;;10.00;97.20;;;;;;1737828;28;20204;-85
2021/12/29 06:11:30;;;;;;;1.47;1.13;;;10.00;97.20;;;;;;1737951;28;20196;-85
2021/12/29 06:12:21;;;;;;;1.90;1.10;;;10.00;97.20;;;;;;1738200;28;20215;-85
2021/12/29 06:13:13;;;;;;;2.80;1.50;;;10.00;97.20;;;;;;1737052;28;20306;-84
2021/12/29 06:14:04;;;;;;;1.55;1.00;;;10.00;97.20;;;;;;1738040;28;20291;-85
2021/12/29 06:14:56;;;;;;;2.67;1.08;;;10.00;97.20;;;;;;1737968;28;20230;-85
2021/12/29 06:15:48;;;;;;;2.40;1.77;;;9.90;97.20;;;;;;1737585;28;20207;-85
2021/12/29 06:16:40;;;;;;;3.10;1.70;;;9.90;97.20;;;;;;1737861;28;20259;-85
2021/12/29 06:17:31;;;;;;;2.72;1.10;;;9.90;97.20;;;;;;1737571;28;20212;-86
2021/12/29 06:18:23;;;;;;;2.58;1.35;;;10.00;97.20;;;;;;1737168;28;20793;-86
2021/12/29 06:19:14;;;;;;;3.30;1.08;;;10.00;97.20;;;;;;1737342;28;20207;-84
2021/12/29 06:20:09;;;;;;;1.60;1.30;;;10.00;97.20;;;;;;1737761;28;20278;-85
2021/12/29 06:21:00;;;;;;;2.78;1.40;;;10.00;97.20;;;;;;1737601;28;20450;-85
2021/12/29 06:21:52;;;;;;;3.30;1.20;;;9.90;97.20;;;;;;1737101;28;20195;-85
2021/12/29 06:22:43;;;;;;;3.35;1.50;;;9.90;97.20;;;;;;1738006;28;20206;-84
2021/12/29 06:23:35;;;;;;;3.28;1.20;;;9.90;97.20;;;;;;1737279;28;20222;-85
2021/12/29 06:24:26;;;;;;;1.83;1.20;;;9.90;97.20;;;;;;1737313;28;20208;-84
2021/12/29 06:25:19;;;;;;;3.80;1.30;;;9.90;97.20;;;;;;1737558;28;20268;-85
2021/12/29 06:26:10;;;;;;;2.38;1.00;;;9.90;97.20;;;;;;1737489;28;20246;-85
2021/12/29 06:27:02;;;;;;;2.30;0.90;;;9.90;97.20;;;;;;1737547;28;20208;-85
2021/12/29 06:27:52;;;;;;;3.10;1.17;;;9.90;97.20;;;;;;1738322;28;20200;-85
2021/12/29 06:28:46;;;;;;;3.07;1.30;;;9.90;97.20;;;;;;1737714;28;20206;-85
2021/12/29 06:29:37;;;;;;;2.40;1.20;;;9.90;97.20;;;;;;1737922;28;20211;-85
2021/12/29 06:30:29;;;;;;;3.30;1.23;;;9.90;97.20;;;;;;1737870;28;20226;-85
2021/12/29 06:31:21;;;;;;;2.67;1.10;;;9.90;97.20;;;;;;1737227;28;20443;-85
2021/12/29 06:32:12;;;;;;;5.07;0.90;;;9.90;97.20;;;;;;1737736;28;20268;-85
2021/12/29 06:33:04;;;;;;;2.75;0.95;;;9.90;97.20;;;;;;1737464;28;20582;-85
2021/12/29 06:33:55;;;;;;;3.85;1.20;;;9.80;97.20;;;;;;1737575;28;20226;-85
2021/12/29 06:34:47;;;;;;;1.73;0.80;;;9.80;97.20;;;;;;1737773;28;20202;-85
2021/12/29 06:35:38;;;;;;;2.15;1.08;;;9.80;97.20;;;;;;1737574;28;20207;-86
2021/12/29 06:36:30;;;;;;;4.05;1.40;;;9.80;97.20;;;;;;1737405;28;20230;-85
2021/12/29 06:37:21;;;;;;;3.17;0.90;;;9.80;97.20;;;;;;1737174;28;20226;-85
2021/12/29 06:38:13;;;;;;;2.10;1.13;;;9.80;97.20;;;;;;1736110;28;20298;-85
2021/12/29 06:39:04;;;;;;;3.78;1.30;;;9.70;97.20;;;;;;1736898;28;20502;-85
2021/12/29 06:39:55;;;;;;;2.07;0.80;;;9.70;97.20;;;;;;1736682;28;20195;-85
2021/12/29 06:40:46;;;;;;;3.10;1.00;;;9.70;97.20;;;;;;1736907;28;20486;-86
2021/12/29 06:41:38;;;;;;;3.37;1.00;;;9.70;97.20;;;;;;1737042;28;20200;-85
2021/12/29 06:42:28;;;;;;;3.83;1.65;;;9.70;97.20;;;;;;1736941;28;20236;-85
2021/12/29 06:43:20;;;;;;;4.03;1.63;;;9.70;97.20;;;;;;1736671;28;20678;-85
2021/12/29 06:44:11;;;;;;;2.17;1.17;;;9.70;97.20;;;;;;1736956;28;20243;-85
2021/12/29 06:45:03;;;;;;;2.33;1.30;;;9.70;97.20;;;;;;1737185;28;20196;-85
2021/12/29 06:45:54;;;;;;;2.88;1.33;;;9.70;97.20;;;;;;1736271;28;20666;-86
2021/12/29 06:46:47;;;;;;;2.37;1.30;;;9.70;97.20;;;;;;1736686;28;20818;-84
2021/12/29 06:47:38;;;;;;;1.52;1.42;;;9.70;97.20;;;;;;1736676;28;20215;-85
2021/12/29 06:48:30;;;;;;;3.25;0.90;;;9.70;97.20;;;;;;1736216;28;20204;-85
2021/12/29 06:49:21;;;;;;;2.78;0.95;;;9.70;97.20;;;;;;1736839;28;20208;-85
2021/12/29 06:50:13;;;;;;;1.67;1.00;;;9.70;97.20;;;;;;1736467;28;20196;-86
2021/12/29 06:51:03;;;;;;;2.45;1.20;;;9.70;97.20;;;;;;1736962;28;20204;-86
2021/12/29 06:51:55;;;;;;;1.53;0.90;;;9.70;97.20;;;;;;1736749;28;20196;-85
2021/12/29 06:52:46;;;;;;;3.72;1.10;;;9.70;97.20;;;;;;1736324;28;20228;-85
2021/12/29 06:53:38;;;;;;;4.50;1.20;;;9.70;97.20;;;;;;1736576;28;20238;-85
2021/12/29 06:54:29;;;;;;;2.85;0.98;;;9.70;97.20;;;;;;1737173;28;20210;-85
2021/12/29 06:55:21;;;;;;;7.03;1.10;;;9.70;97.20;;;;;;1736653;28;20200;-85
2021/12/29 06:56:12;;;;;;;3.78;1.10;;;9.70;97.20;;;;;;1736698;28;20208;-85
2021/12/29 06:57:04;;;;;;;4.20;1.50;;;9.70;97.20;;;;;;1736423;28;20196;-85
2021/12/29 06:57:55;;;;;;;1.75;0.80;;;9.70;97.20;;;;;;1736851;28;20700;-84
2021/12/29 06:58:47;;;;;;;2.00;1.00;;;9.70;97.20;;;;;;1736056;28;20654;-85
2021/12/29 06:59:38;;;;;;;2.78;1.10;;;9.60;97.20;;;;;;1736376;28;20254;-85
2021/12/29 07:00:29;;;;;;;2.90;1.20;;;9.60;97.20;;;;;;1736691;28;20199;-84
2021/12/29 07:01:20;;;;;;;2.70;1.00;;;9.70;97.20;;;;;;1736609;28;20454;-85
2021/12/29 07:02:14;;;;;;;4.20;1.33;;;9.70;97.20;;;;;;1736669;28;20214;-84
2021/12/29 07:03:05;;;;;;;1.20;0.80;;;9.70;97.20;;;;;;1736647;28;20230;-85
2021/12/29 07:03:57;;;;;;;1.90;1.08;;;9.70;97.20;;;;;;1736200;28;20223;-85
2021/12/29 07:04:48;;;;;;;2.22;1.00;;;9.70;97.20;;;;;;1736767;28;20208;-85
2021/12/29 07:05:40;;;;;;;4.60;0.80;;;9.70;97.20;;;;;;1736795;28;20278;-85
2021/12/29 07:06:31;;;;;;;1.50;0.95;;;9.70;97.20;;;;;;1736756;28;20234;-85
2021/12/29 07:07:23;;;;;;;2.47;1.17;;;9.80;97.20;;;;;;1736372;28;20262;-85
2021/12/29 07:08:14;;;;;;;1.80;0.77;;;9.80;97.20;;;;;;1736185;28;20226;-85
2021/12/29 07:09:06;;;;;;;2.50;0.95;;;9.80;97.20;;;;;;1736268;28;20235;-85
2021/12/29 07:09:57;;;;;;;2.40;0.80;;;9.80;97.20;;;;;;1736820;28;20242;-85
2021/12/29 07:10:49;;;;;;;1.53;0.93;;;9.80;97.20;;;;;;1736213;28;20207;-85
2021/12/29 07:11:40;;;;;;;2.22;1.10;;;9.80;97.20;;;;;;1736459;28;20480;-85
2021/12/29 07:12:31;;;;;;;1.63;1.07;;;9.90;97.20;;;;;;1736158;28;20199;-85
2021/12/29 07:13:23;;;;;;;4.78;1.30;;;9.80;97.20;;;;;;1734994;28;20207;-85
2021/12/29 07:14:14;;;;;;;2.08;1.00;;;9.80;97.20;;;;;;1736109;28;20200;-85
2021/12/29 07:15:06;;;;;;;3.72;1.38;;;9.80;97.20;;;;;;1736271;28;20215;-85
2021/12/29 07:15:58;;;;;;;2.05;1.17;;;9.80;97.20;;;;;;1736303;28;20227;-85
2021/12/29 07:16:50;;;;;;;1.77;0.98;;;9.80;97.20;;;;;;1736642;28;20721;-85
2021/12/29 07:17:43;;;;;;;1.65;1.17;;;9.80;97.20;;;;;;1736058;28;20250;-89
2021/12/29 07:18:33;;;;;;;1.80;0.80;;;9.80;97.20;;;;;;1734452;28;20207;-89
2021/12/29 07:19:25;;;;;;;3.60;1.20;;;9.70;97.20;;;;;;1734608;28;20203;-89
2021/12/29 07:20:16;;;;;;;3.53;1.20;;;9.70;97.20;;;;;;1734677;28;20218;-89
2021/12/29 07:21:08;;;;;;;1.77;1.00;;;9.70;97.20;;;;;;1734748;28;20195;-89
2021/12/29 07:22:01;;;;;;;1.42;1.00;;;9.70;97.20;;;;;;1734763;28;20443;-89
2021/12/29 07:22:53;;;;;;;3.05;1.20;;;9.70;97.20;;;;;;1734726;28;20705;-89
2021/12/29 07:23:44;;;;;;;1.85;0.70;;;9.70;97.20;;;;;;1734656;28;20220;-89
2021/12/29 07:24:36;;;;;;;2.63;0.90;;;9.70;97.20;;;;;;1734823;28;20199;-89
2021/12/29 07:25:29;;;;;;;2.20;1.10;;;9.70;97.20;;;;;;1737689;28;20584;-89
2021/12/29 07:26:21;;;;;;;2.40;1.05;;;9.70;97.20;;;;;;1735711;28;20196;-88
2021/12/29 07:27:12;;;;;;;3.85;1.40;;;9.70;97.20;;;;;;1735729;28;20207;-89
2021/12/29 07:28:04;;;;;;;3.90;1.00;;;9.70;97.20;;;;;;1735351;28;20192;-88
2021/12/29 07:28:56;;;;;;;3.13;1.02;;;9.70;97.20;;;;;;1735217;28;20188;-89
2021/12/29 07:29:47;;;;;;;1.13;0.80;;;9.70;97.20;;;;;;1735758;28;20199;-89
2021/12/29 07:30:39;;;;;;;1.63;0.90;;;9.70;97.20;;;;;;1735479;28;20204;-88
2021/12/29 07:31:30;;;;;;;2.65;1.10;;;9.80;97.20;;;;;;1735299;28;20435;-89
2021/12/29 07:32:22;;;;;;;2.03;0.90;;;9.70;97.20;;;;;;1734976;28;20655;-89
2021/12/29 07:33:14;;;;;;;2.95;0.98;;;9.80;97.20;;;;;;1734828;28;20680;-88
2021/12/29 07:34:07;;;;;;;2.20;0.70;;;9.80;97.20;;;;;;1734428;28;20239;-88
2021/12/29 07:34:58;;;;;;;5.28;1.25;;;9.80;97.20;;;;;;1734807;28;20206;-88
2021/12/29 07:35:50;;;;;;;2.25;0.80;;;9.80;97.20;;;;;;1734608;28;20200;-88
2021/12/29 07:36:41;;;;;;;1.73;1.15;;;9.80;97.20;;;;;;1734743;28;20219;-87
2021/12/29 07:37:33;;;;;;;3.70;1.10;;;9.80;97.20;;;;;;1734776;28;20234;-88
2021/12/29 07:38:24;;;;;;;1.13;0.70;;;9.80;97.20;;;;;;1734962;28;20450;-87
2021/12/29 07:39:15;;;;;;;12.40;1.10;;;9.80;97.20;;;;;;1733006;28;20196;-90
2021/12/29 07:40:09;;;;;;;2.78;1.27;;;9.80;97.20;;;;;;1728509;28;20243;-91
2021/12/29 07:41:01;;;;;;;1.52;0.82;;;9.80;97.20;;;;;;1734885;28;20279;-90
2021/12/29 07:41:51;;;;;;;3.28;1.10;;;9.80;97.20;;;;;;1735227;28;20621;-90
2021/12/29 07:42:44;;;;;;;1.40;0.80;;;9.80;97.20;;;;;;1734979;28;20210;-91
2021/12/29 07:43:36;;;;;;;2.85;1.10;;;9.80;97.20;;;;;;1734867;28;20470;-91
2021/12/29 07:44:28;;;;;;;2.55;0.88;;;9.80;97.20;;;;;;1735221;28;20232;-88
2021/12/29 07:45:19;;;;;;;3.38;1.00;;;9.80;97.20;;;;;;1735110;28;20658;-87
2021/12/29 07:46:12;;;;;;;3.97;1.20;;;9.80;97.20;;;;;;1734471;28;20576;-88
2021/12/29 07:47:05;;;;;;;3.40;1.00;;;9.90;97.20;;;;;;1734810;28;20453;-88
2021/12/29 07:47:57;;;;;;;3.10;1.30;;;9.90;97.20;;;;;;1734521;28;20203;-88
2021/12/29 07:48:49;;;;;;;3.72;1.30;;;9.90;97.20;;;;;;1734404;28;20210;-88
2021/12/29 07:49:41;;;;;;;1.85;0.82;;;9.90;97.20;;;;;;1734515;28;20204;-89
2021/12/29 07:50:32;;;;;;;5.95;1.40;;;10.00;97.20;;;;;;1733865;28;20235;-90
2021/12/29 07:51:24;;;;;;;3.83;1.10;;;10.00;97.20;;;;;;1731776;28;20207;-90
2021/12/29 07:52:15;;;;;;;2.20;0.90;;;10.00;97.20;;;;;;1731612;28;20474;-89
2021/12/29 07:53:06;;;;;;;2.60;0.97;;;10.00;97.20;;;;;;1734925;28;20206;-90
2021/12/29 07:53:58;;;;;;;2.10;0.90;;;10.10;97.20;;;;;;1735640;28;20230;-88
2021/12/29 07:54:49;;;;;;;2.85;0.90;;;10.10;97.20;;;;;;1735600;28;20207;-87
2021/12/29 07:55:40;;;;;;;3.80;1.15;;;10.10;97.20;;;;;;1734957;28;20238;-86
2021/12/29 07:56:32;;;;;;;1.60;0.80;;;10.10;97.20;;;;;;1735477;28;20207;-87
2021/12/29 07:57:23;;;;;;;3.75;0.90;;;10.10;97.20;;;;;;1731610;28;20656;-86
2021/12/29 07:58:14;;;;;;;4.37;1.20;;;10.10;97.20;;;;;;1728575;28;20674;-85
2021/12/29 07:59:05;;;;;;;1.70;1.05;;;10.10;97.20;;;;;;1728983;28;20458;-86
2021/12/29 07:59:57;;;;;;;2.53;1.23;;;10.10;97.20;;;;;;1729602;28;20286;-85
2021/12/29 08:00:49;;;;;;;2.70;1.30;;;10.10;97.20;;;;;;1733074;28;20676;-82
2021/12/29 08:01:41;;;;;;;2.42;1.10;;;10.10;97.20;;;;;;1740005;28;20195;-87
2021/12/29 08:02:32;;;;;;;2.38;1.20;;;10.10;97.20;;;;;;1736420;28;20234;-86
2021/12/29 08:03:24;;;;;;;1.90;1.20;;;10.10;97.20;;;;;;1737535;28;20198;-85
2021/12/29 08:04:19;;;;;;;2.65;1.45;;;10.10;97.20;;;;;;1735711;28;20200;-86
2021/12/29 08:05:12;;;;;;;1.65;1.00;;;10.00;97.20;;;;;;1737863;28;20204;-85
2021/12/29 08:06:02;;;;;;;3.60;1.40;;;10.00;97.20;;;;;;1734843;28;20201;-85
2021/12/29 08:06:54;;;;;;;2.40;1.13;;;10.00;97.20;;;;;;1734295;28;20227;-85
2021/12/29 08:07:45;;;;;;;3.08;1.10;;;10.00;97.20;;;;;;1734631;28;20686;-85
2021/12/29 08:08:37;;;;;;;4.70;1.35;;;10.00;97.20;;;;;;1734479;28;20248;-85
2021/12/29 08:09:28;;;;;;;1.98;1.10;;;10.00;97.20;;;;;;1735407;28;20204;-85
2021/12/29 08:10:20;;;;;;;2.23;1.57;;;10.00;97.20;;;;;;1734948;28;20291;-86
2021/12/29 08:11:10;;;;;;;2.28;1.40;;;10.00;97.20;;;;;;1738547;28;20180;-87
2021/12/29 08:12:02;;;;;;;3.40;2.00;;;10.00;97.20;;;;;;1741773;28;20183;-88
2021/12/29 08:12:53;;;;;;;4.20;2.05;;;10.00;97.20;;;;;;1739985;28;20215;-89
2021/12/29 08:13:46;;;;;;;3.00;2.17;;;10.00;97.20;;;;;;1737010;28;20272;-90
2021/12/29 08:14:37;;;;;;;2.45;1.23;;;10.00;97.20;;;;;;1729796;28;20436;-89
2021/12/29 08:15:29;;;;;;;4.27;1.83;;;10.00;97.20;;;;;;1734225;28;20295;-88
2021/12/29 08:16:20;;;;;;;3.85;1.77;;;10.00;97.20;;;;;;1733973;28;20545;-89
2021/12/29 08:17:12;;;;;;;2.35;1.80;;;10.00;97.20;;;;;;1734349;28;20230;-88
2021/12/29 08:18:05;;;;;;;3.25;1.70;;;10.00;97.20;;;;;;1734195;28;20574;-90
2021/12/29 08:18:57;;;;;;;3.75;1.80;;;10.00;97.20;;;;;;1730969;28;20267;-88
2021/12/29 08:19:50;;;;;;;3.28;1.77;;;10.00;97.20;;;;;;1727438;28;20208;-89
2021/12/29 08:20:42;;;;;;;1.85;1.30;;;10.00;97.20;;;;;;1727683;28;20204;-87
2021/12/29 08:21:33;;;;;;;4.15;1.90;;;10.00;97.20;;;;;;1728406;28;20311;-89
2021/12/29 08:22:24;;;;;;;5.38;1.58;;;10.00;97.20;;;;;;1731240;28;20196;-86
2021/12/29 08:23:16;;;;;;;3.83;1.50;;;10.00;97.20;;;;;;1727446;28;20201;-86
2021/12/29 08:24:07;;;;;;;2.35;1.25;;;10.00;97.20;;;;;;1727730;28;20246;-85
2021/12/29 08:24:59;;;;;;;4.20;1.63;;;10.00;97.20;;;;;;1727613;28;20200;-85
2021/12/29 08:25:50;;;;;;;4.50;1.52;;;10.00;97.20;;;;;;1727664;28;20251;-86
2021/12/29 08:26:42;;;;;;;2.78;1.42;;;10.00;97.20;;;;;;1727620;28;20204;-88
2021/12/29 08:27:34;;;;;;;2.08;1.13;;;10.00;97.20;;;;;;1727454;28;20280;-87
2021/12/29 08:28:25;;;;;;;2.08;1.30;;;10.00;97.20;;;;;;1727407;28;20211;-87
2021/12/29 08:29:16;;;;;;;4.95;1.50;;;10.00;97.20;;;;;;1731939;28;20250;-89
2021/12/29 08:30:09;;;;;;;1.77;1.50;;;10.00;97.20;;;;;;1734301;28;20258;-87
2021/12/29 08:31:00;;;;;;;2.42;1.40;;;10.00;97.20;;;;;;1734128;28;20450;-88
2021/12/29 08:31:52;;;;;;;1.77;1.00;;;10.00;97.20;;;;;;1730003;28;20275;-89
2021/12/29 08:32:43;;;;;;;5.03;1.23;;;10.00;97.20;;;;;;1727439;28;21017;-88
2021/12/29 08:33:38;;;;;;;2.10;1.17;;;10.00;97.20;;;;;;1730282;28;20243;-86
2021/12/29 08:34:28;;;;;;;2.80;1.17;;;10.10;97.20;;;;;;1734262;28;20219;-87
2021/12/29 08:35:22;;;;;;;2.83;1.50;;;10.10;97.20;;;;;;1734225;28;20227;-87
2021/12/29 08:36:13;;;;;;;1.70;1.30;;;10.10;97.20;;;;;;1734280;28;20207;-87
2021/12/29 08:37:04;;;;;;;2.80;1.30;;;10.10;97.20;;;;;;1734268;28;20242;-86
2021/12/29 08:37:56;;;;;;;1.90;1.15;;;10.10;97.20;;;;;;1734619;28;20439;-85
2021/12/29 08:38:48;;;;;;;2.13;1.10;;;10.20;97.20;;;;;;1733943;28;20196;-87
2021/12/29 08:39:39;;;;;;;1.30;1.00;;;10.20;97.20;;;;;;1734257;28;20207;-88
2021/12/29 08:40:31;;;;;;;2.03;1.00;;;10.20;97.20;;;;;;1734184;28;20204;-88
2021/12/29 08:41:22;;;;;;;1.65;0.95;;;10.20;97.20;;;;;;1734150;28;20592;-88
2021/12/29 08:42:13;;;;;;;2.13;1.20;;;10.30;97.20;;;;;;1734181;28;20204;-88
2021/12/29 08:43:04;;;;;;;2.97;1.20;;;10.30;97.20;;;;;;1734232;28;20493;-88
2021/12/29 08:43:56;;;;;;;2.20;1.10;;;10.30;97.20;;;;;;1734035;28;20289;-88
2021/12/29 08:44:47;;;;;;;3.65;1.38;;;10.30;97.20;;;;;;1734320;28;20204;-88
2021/12/29 08:45:42;;;;;;;2.10;1.27;;;10.30;97.20;;;;;;1735670;28;20209;-87
2021/12/29 08:46:33;;;;;;;4.50;1.52;;;10.30;97.20;;;;;;1735665;28;20208;-87
2021/12/29 08:47:25;;;;;;;1.30;0.80;;;10.30;97.20;;;;;;1735634;28;20206;-88
2021/12/29 08:48:17;;;;;;;1.50;0.80;;;10.30;97.20;;;;;;1730843;28;20678;-88
2021/12/29 08:49:08;;;;;;;4.05;1.58;;;10.30;97.20;;;;;;1728311;28;20682;-87
2021/12/29 08:49:59;;;;;;;3.07;1.40;;;10.30;97.20;;;;;;1728819;28;20673;-87
2021/12/29 08:50:52;;;;;;;2.47;1.30;;;10.30;97.20;;;;;;1728761;28;20474;-87
2021/12/29 08:51:43;;;;;;;1.85;1.10;;;10.30;97.20;;;;;;1728862;28;20207;-87
2021/12/29 08:52:35;;;;;;;3.03;1.33;;;10.30;97.20;;;;;;1728855;28;20204;-87
2021/12/29 08:53:26;;;;;;;2.28;0.93;;;10.40;97.20;;;;;;1728720;28;20473;-88
2021/12/29 08:54:18;;;;;;;1.50;1.27;;;10.40;97.20;;;;;;1728808;28;20283;-87
2021/12/29 08:55:11;;;;;;;4.30;1.05;;;10.40;97.20;;;;;;1728720;28;20451;-88
2021/12/29 08:56:04;;;;;;;2.05;1.00;;;10.40;97.20;;;;;;1728887;28;20200;-87
2021/12/29 08:56:55;;;;;;;1.73;0.90;;;10.40;97.20;;;;;;1728812;28;20212;-90
2021/12/29 08:57:47;;;;;;;2.27;0.90;;;10.40;97.20;;;;;;1728764;28;20291;-89
2021/12/29 08:58:38;;;;;;;1.60;0.93;;;10.40;97.20;;;;;;1728502;28;20436;-90
2021/12/29 08:59:30;;;;;;;3.30;1.20;;;10.50;97.20;;;;;;1728735;28;20254;-89
2021/12/29 09:00:21;;;;;;;3.45;1.20;;;10.50;97.20;;;;;;1728831;28;20822;-89
2021/12/29 09:01:13;;;;;;;3.42;1.20;;;10.50;97.20;;;;;;1728811;28;20202;-89
2021/12/29 09:02:05;;;;;;;2.88;1.15;;;10.50;97.20;;;;;;1731495;28;20203;-89
2021/12/29 09:02:58;;;;;;;2.08;1.10;;;10.50;97.20;;;;;;1735833;28;20210;-88
2021/12/29 09:03:50;;;;;;;2.75;1.40;;;10.50;97.20;;;;;;1735328;28;20219;-88
2021/12/29 09:04:41;;;;;;;2.75;1.10;;;10.50;97.20;;;;;;1735212;28;20271;-87
2021/12/29 09:05:32;;;;;;;2.50;1.40;;;10.50;97.20;;;;;;1731937;28;20218;-86
2021/12/29 09:06:25;;;;;;;1.60;0.90;;;10.50;97.20;;;;;;1734755;28;20192;-85
2021/12/29 09:07:16;;;;;;;2.10;1.10;;;10.50;97.20;;;;;;1731299;28;20481;-85
2021/12/29 09:08:08;;;;;;;2.67;1.13;;;10.50;97.20;;;;;;1728573;28;20201;-86
2021/12/29 09:08:58;;;;;;;2.90;1.63;;;10.50;97.20;;;;;;1728801;28;20204;-86
2021/12/29 09:09:50;;;;;;;2.83;0.93;;;10.50;97.20;;;;;;1728513;28;20197;-88
2021/12/29 09:10:42;;;;;;;1.35;1.02;;;10.60;97.20;;;;;;1728606;28;20688;-87
2021/12/29 09:11:33;;;;;;;1.98;1.02;;;10.60;97.20;;;;;;1728633;28;20291;-86
2021/12/29 09:12:24;;;;;;;2.75;0.90;;;10.60;97.20;;;;;;1729021;28;20200;-87
2021/12/29 09:13:16;;;;;;;2.50;1.10;;;10.60;97.20;;;;;;1728469;28;20232;-87
2021/12/29 09:14:07;;;;;;;2.47;1.13;;;10.60;97.20;;;;;;1728710;28;20706;-87
2021/12/29 09:14:59;;;;;;;2.42;1.00;;;10.60;97.20;;;;;;1728671;28;20646;-86
2021/12/29 09:15:53;;;;;;;2.30;1.10;;;10.60;97.20;;;;;;1728641;28;20213;-86
2021/12/29 09:16:45;;;;;;;2.00;1.30;;;10.70;97.20;;;;;;1728618;28;20208;-87
2021/12/29 09:17:36;;;;;;;2.47;1.10;;;10.70;97.20;;;;;;1728677;28;20232;-87
2021/12/29 09:18:30;;;;;;;1.53;1.10;;;10.70;97.20;;;;;;1728262;28;20219;-88
2021/12/29 09:19:22;;;;;;;2.42;0.95;;;10.70;97.20;;;;;;1728795;28;20857;-85
2021/12/29 09:20:24;;;;;;;2.08;1.58;;;10.70;97.20;;;;;;1731811;28;20207;-86
2021/12/29 09:21:18;;;;;;;3.63;1.23;;;10.80;97.20;;;;;;1729349;28;20212;-87
2021/12/29 09:22:13;;;;;;;2.20;1.23;;;10.80;97.20;;;;;;1732676;28;20630;-88
2021/12/29 09:23:07;;;;;;;3.35;1.75;;;10.90;97.20;;;;;;1735522;28;20208;-87
2021/12/29 09:23:59;;;;;;;1.70;1.50;;;11.00;97.20;;;;;;1735315;28;20224;-86
2021/12/29 09:24:50;;;;;;;3.80;2.08;;;11.00;97.20;;;;;;1735585;28;20234;-87
2021/12/29 09:25:45;;;;;;;4.15;1.50;;;11.10;97.20;;;;;;1735478;28;20211;-87
2021/12/29 09:26:35;;;;;;;2.30;2.00;;;11.10;97.20;;;;;;1728643;28;20695;-87
2021/12/29 09:27:27;;;;;;;2.70;2.40;;;11.20;97.20;;;;;;1728757;28;20682;-83
2021/12/29 09:28:18;;;;;;;2.15;1.77;;;11.20;97.20;;;;;;1728492;28;21053;-86
2021/12/29 09:29:10;;;;;;;3.63;1.88;;;11.30;97.20;;;;;;1732658;28;20228;-87
2021/12/29 09:30:01;;;;;;;1.73;1.13;;;11.30;97.20;;;;;;1733534;28;20663;-88
2021/12/29 09:30:55;;;;;;;2.85;1.27;;;11.30;97.20;;;;;;1735326;28;20239;-88
2021/12/29 09:31:46;;;;;;;2.45;1.38;;;11.30;97.20;;;;;;1730695;28;20204;-88
2021/12/29 09:32:38;;;;;;;2.30;0.90;;;11.30;97.20;;;;;;1728607;28;20200;-89
2021/12/29 09:33:29;;;;;;;2.55;1.30;;;11.30;97.20;;;;;;1728363;28;20582;-89
2021/12/29 09:34:21;;;;;;;2.20;1.20;;;11.30;97.20;;;;;;1728484;28;20205;-83
2021/12/29 09:35:12;;;;;;;4.20;1.13;;;11.20;97.20;;;;;;1728469;28;20447;-88
2021/12/29 09:36:04;;;;;;;3.70;1.52;;;11.20;97.20;;;;;;1734999;28;20191;-88
2021/12/29 09:36:55;;;;;;;4.18;1.35;;;11.20;97.20;;;;;;1735411;28;20192;-88
2021/12/29 09:37:52;;;;;;;3.78;1.55;;;11.20;97.20;;;;;;1735422;28;20227;-88
2021/12/29 09:38:43;;;;;;;2.65;1.63;;;11.10;97.20;;;;;;1735054;28;20219;-89
2021/12/29 09:39:35;;;;;;;5.57;2.17;;;11.10;97.20;;;;;;1735128;28;20199;-87
2021/12/29 09:40:26;;;;;;;3.53;1.50;;;11.10;97.20;;;;;;1734170;28;20203;-87
2021/12/29 09:41:19;;;;;;;2.60;1.53;;;11.10;97.20;;;;;;1728506;28;20287;-86
2021/12/29 09:42:10;;;;;;;2.28;1.13;;;11.10;97.20;;;;;;1729197;28;20941;-85
2021/12/29 09:43:02;;;;;;;2.30;1.40;;;11.10;97.20;;;;;;1729099;28;20727;-85
2021/12/29 09:43:53;;;;;;;3.47;1.42;;;11.10;97.20;;;;;;1728562;28;20471;-86
2021/12/29 09:44:44;;;;;;;4.07;1.53;;;11.10;97.20;;;;;;1728820;28;20947;-85
2021/12/29 09:45:36;;;;;;;3.15;1.50;;;11.10;97.20;;;;;;1728769;28;20687;-85
2021/12/29 09:46:29;;;;;;;3.15;1.55;;;11.10;97.20;;;;;;1728735;28;20236;-85
2021/12/29 09:47:20;;;;;;;3.25;1.58;;;11.10;97.20;;;;;;1728553;28;20212;-85
2021/12/29 09:48:12;;;;;;;2.50;1.10;;;11.00;97.20;;;;;;1728204;28;20208;-85
2021/12/29 09:49:03;;;;;;;4.90;1.50;;;11.00;97.20;;;;;;1728545;28;20222;-85
2021/12/29 09:49:55;;;;;;;2.70;1.30;;;11.00;97.20;;;;;;1728548;28;20204;-85
2021/12/29 09:50:46;;;;;;;3.00;1.70;;;11.00;97.20;;;;;;1728756;28;20239;-85
2021/12/29 09:51:38;;;;;;;3.85;1.52;;;11.00;97.20;;;;;;1728615;28;20207;-85
2021/12/29 09:52:33;;;;;;;2.42;1.23;;;11.00;97.20;;;;;;1728588;28;20204;-85
2021/12/29 09:53:26;;;;;;;2.42;1.52;;;11.00;97.20;;;;;;1728620;28;20204;-84
2021/12/29 09:54:17;;;;;;;3.30;1.50;;;10.90;97.20;;;;;;1728773;28;20543;-86
2021/12/29 09:55:11;;;;;;;2.35;1.02;;;10.90;97.20;;;;;;1731164;28;20310;-85
2021/12/29 09:56:03;;;;;;;3.05;1.40;;;10.90;97.20;;;;;;1735123;28;20585;-86
2021/12/29 09:56:54;;;;;;;3.33;1.42;;;10.90;97.20;;;;;;1734385;28;20204;-85
2021/12/29 09:57:47;;;;;;;3.85;1.50;;;10.90;97.20;;;;;;1735345;28;20236;-86
2021/12/29 09:58:40;;;;;;;1.85;1.33;;;10.90;97.20;;;;;;1735077;28;20204;-85
2021/12/29 09:59:32;;;;;;;3.90;1.70;;;10.90;97.20;;;;;;1735792;28;20573;-86
2021/12/29 10:00:25;;;;;;;2.38;1.45;;;11.00;97.20;;;;;;1735564;28;20200;-85
2021/12/29 10:01:17;;;;;;;3.50;2.13;;;10.90;97.20;;;;;;1735476;28;20198;-85
2021/12/29 10:02:09;;;;;;;5.32;2.20;;;11.00;97.20;;;;;;1735921;28;20211;-87
2021/12/29 10:03:04;;;;;;;4.82;1.70;;;11.00;97.20;;;;;;1736807;28;20278;-88
2021/12/29 10:03:56;;;;;;;2.20;1.50;;;10.90;97.20;;;;;;1736053;28;20212;-87
2021/12/29 10:04:46;;;;;;;3.13;2.40;;;10.90;97.20;;;;;;1735650;28;20200;-88
2021/12/29 10:05:40;;;;;;;2.80;2.13;;;10.90;97.20;;;;;;1735758;28;20203;-87
2021/12/29 10:06:31;;;;;;;2.97;1.75;;;10.90;97.20;;;;;;1735873;28;20290;-90
2021/12/29 10:07:23;;;;;;;2.80;1.90;;;10.80;97.20;;;;;;1735761;28;20246;-88
2021/12/29 10:08:16;;;;;;;5.00;2.50;;;10.80;97.20;;;;;;1735543;28;20260;-87
2021/12/29 10:09:14;;;;;;;3.38;1.90;;;10.90;97.20;;;;;;1735727;28;20241;-86
2021/12/29 10:10:15;;;;;;;3.60;2.20;;;10.90;97.20;;;;;;1736032;28;20215;-89
2021/12/29 10:11:09;;;;;;;3.38;1.52;;;10.90;97.20;;;;;;1735455;28;20204;-89
2021/12/29 10:12:08;;;;;;;2.95;1.33;;;10.90;97.20;;;;;;1735172;28;20211;-88
2021/12/29 10:13:00;;;;;;;3.58;1.63;;;10.90;97.20;;;;;;1735616;28;20207;-87
2021/12/29 10:13:52;;;;;;;2.65;1.52;;;10.90;97.20;;;;;;1735207;28;20711;-87
2021/12/29 10:14:47;;;;;;;3.88;1.70;;;10.90;97.20;;;;;;1735263;28;20685;-87
2021/12/29 10:15:41;;;;;;;4.38;1.60;;;11.00;97.20;;;;;;1735550;28;20207;-86
2021/12/29 10:16:32;;;;;;;3.45;1.27;;;11.00;97.20;;;;;;1735952;28;20204;-86
2021/12/29 10:17:26;;;;;;;3.80;1.50;;;11.00;97.20;;;;;;1734391;28;20202;-86
2021/12/29 10:18:20;;;;;;;1.85;1.52;;;11.00;97.20;;;;;;1728745;28;20275;-85
2021/12/29 10:19:14;;;;;;;4.80;1.40;;;11.00;97.20;;;;;;1733462;28;20694;-86
2021/12/29 10:20:07;;;;;;;2.08;1.77;;;10.90;97.20;;;;;;1736094;28;20212;-86
2021/12/29 10:21:01;;;;;;;4.15;1.80;;;10.90;97.20;;;;;;1735908;28;20659;-86
2021/12/29 10:21:53;;;;;;;2.70;1.40;;;10.90;97.20;;;;;;1736077;28;20204;-86
2021/12/29 10:22:54;;;;;;;2.65;1.40;;;10.90;97.20;;;;;;1735541;28;20208;-85
2021/12/29 10:23:50;;;;;;;4.90;1.67;;;10.90;97.20;;;;;;1729184;28;20637;-86
2021/12/29 10:24:42;;;;;;;3.40;2.05;;;10.90;97.20;;;;;;1728937;28;20200;-86
2021/12/29 10:25:34;;;;;;;2.40;1.30;;;10.90;97.20;;;;;;1734726;28;20228;-83
2021/12/29 10:26:26;;;;;;;3.83;2.20;;;10.90;97.20;;;;;;1735739;28;20687;-89
2021/12/29 10:27:20;;;;;;;2.80;1.63;;;10.90;97.20;;;;;;1733275;28;20270;-88
2021/12/29 10:28:22;;;;;;;2.00;1.20;;;10.90;97.20;;;;;;1734831;28;20678;-89
2021/12/29 10:29:16;;;;;;;4.43;1.50;;;10.90;97.20;;;;;;1735331;28;20207;-87
2021/12/29 10:30:26;;;;;;;3.65;1.60;;;10.90;97.20;;;;;;1735208;28;20211;-86
2021/12/29 10:31:19;;;;;;;2.85;1.27;;;10.90;97.20;;;;;;1729683;28;20208;-87
2021/12/29 10:32:11;;;;;;;1.85;1.27;;;10.90;97.20;;;;;;1731111;28;20205;-86